sensor_id;sensor_type;location;lat;lon;timestamp;temperature;humidity
12568;DHT22;6349;50.904;6.136;2022-12-07T00:00:42;4.70;99.90
12568;DHT22;6349;50.904;6.136;2022-12-07T00:02:43;4.70;99.90
12568;DHT22;6349;50.904;6.136;2022-12-07T00:04:43;4.70;99.90
12568;DHT22;6349;50.904;6.136;2022-12-07T00:06:46;4.70;99.90
12568;DHT22;6349;50.904;6.136;2022-12-07T00:08:50;4.80;99.90
12568;DHT22;6349;50.904;6.136;2022-12-07T00:10:50;4.70;99.90
12568;DHT22;6349;50.904;6.136;2022-12-07T00:12:51;4.70;99.90
12568;DHT22;6349;50.904;6.136;2022-12-07T00:14:52;4.80;99.90
12568;DHT22;6349;50.904;6.136;2022-12-07T00:16:52;4.80;99.90
12568;DHT22;6349;50.904;6.136;2022-12-07T00:18:53;4.80;99.90
12568;DHT22;6349;50.904;6.136;2022-12-07T00:20:59;4.80;99.90
12568;DHT22;6349;50.904;6.136;2022-12-07T00:23:00;4.80;99.90
12568;DHT22;6349;50.904;6.136;2022-12-07T00:25:01;4.80;99.90
12568;DHT22;6349;50.904;6.136;2022-12-07T00:27:02;4.80;99.90
12568;DHT22;6349;50.904;6.136;2022-12-07T00:29:05;4.80;99.90
12568;DHT22;6349;50.904;6.136;2022-12-07T00:31:09;4.70;99.90
12568;DHT22;6349;50.904;6.136;2022-12-07T00:33:10;4.70;99.90
12568;DHT22;6349;50.904;6.136;2022-12-07T00:35:10;4.70;99.90
12568;DHT22;6349;50.904;6.136;2022-12-07T00:37:11;4.80;99.90
12568;DHT22;6349;50.904;6.136;2022-12-07T00:39:13;4.80;99.90
12568;DHT22;6349;50.904;6.136;2022-12-07T00:41:16;4.80;99.90
12568;DHT22;6349;50.904;6.136;2022-12-07T00:43:17;4.80;99.90
12568;DHT22;6349;50.904;6.136;2022-12-07T00:45:17;4.80;99.90
12568;DHT22;6349;50.904;6.136;2022-12-07T00:47:18;4.80;99.90
12568;DHT22;6349;50.904;6.136;2022-12-07T00:49:19;4.80;99.90
12568;DHT22;6349;50.904;6.136;2022-12-07T00:51:21;4.80;99.90
12568;DHT22;6349;50.904;6.136;2022-12-07T00:53:22;4.80;99.90
12568;DHT22;6349;50.904;6.136;2022-12-07T00:55:23;4.80;99.90
12568;DHT22;6349;50.904;6.136;2022-12-07T00:57:23;4.80;99.90
12568;DHT22;6349;50.904;6.136;2022-12-07T00:59:24;4.80;99.90
12568;DHT22;6349;50.904;6.136;2022-12-07T01:01:28;4.80;99.90
12568;DHT22;6349;50.904;6.136;2022-12-07T01:03:28;4.80;99.90
12568;DHT22;6349;50.904;6.136;2022-12-07T01:05:29;4.80;99.90
12568;DHT22;6349;50.904;6.136;2022-12-07T01:07:29;4.80;99.90
12568;DHT22;6349;50.904;6.136;2022-12-07T01:09:30;4.80;99.90
12568;DHT22;6349;50.904;6.136;2022-12-07T01:11:31;4.80;99.90
12568;DHT22;6349;50.904;6.136;2022-12-07T01:13:32;4.80;99.90
12568;DHT22;6349;50.904;6.136;2022-12-07T01:15:33;4.80;99.90
12568;DHT22;6349;50.904;6.136;2022-12-07T01:17:34;4.70;99.90
12568;DHT22;6349;50.904;6.136;2022-12-07T01:19:35;4.80;99.90
12568;DHT22;6349;50.904;6.136;2022-12-07T01:21:36;4.80;99.90
12568;DHT22;6349;50.904;6.136;2022-12-07T01:23:38;4.80;99.90
12568;DHT22;6349;50.904;6.136;2022-12-07T01:25:39;4.80;99.90
12568;DHT22;6349;50.904;6.136;2022-12-07T01:27:39;4.80;99.90
12568;DHT22;6349;50.904;6.136;2022-12-07T01:29:40;4.80;99.90
12568;DHT22;6349;50.904;6.136;2022-12-07T01:31:40;4.80;99.90
12568;DHT22;6349;50.904;6.136;2022-12-07T01:33:43;4.80;99.90
12568;DHT22;6349;50.904;6.136;2022-12-07T01:35:44;4.80;99.90
12568;DHT22;6349;50.904;6.136;2022-12-07T01:37:45;4.80;99.90
12568;DHT22;6349;50.904;6.136;2022-12-07T01:39:49;4.80;99.90
12568;DHT22;6349;50.904;6.136;2022-12-07T01:41:50;4.80;99.90
12568;DHT22;6349;50.904;6.136;2022-12-07T01:44:26;4.80;99.90
12568;DHT22;6349;50.904;6.136;2022-12-07T01:46:27;4.90;99.90
12568;DHT22;6349;50.904;6.136;2022-12-07T01:48:35;4.70;99.90
12568;DHT22;6349;50.904;6.136;2022-12-07T01:50:38;4.80;99.90
12568;DHT22;6349;50.904;6.136;2022-12-07T01:52:41;4.80;99.90
12568;DHT22;6349;50.904;6.136;2022-12-07T01:54:44;4.80;99.90
12568;DHT22;6349;50.904;6.136;2022-12-07T01:56:50;4.80;99.90
12568;DHT22;6349;50.904;6.136;2022-12-07T01:58:52;4.80;99.90
12568;DHT22;6349;50.904;6.136;2022-12-07T02:00:54;4.80;99.90
12568;DHT22;6349;50.904;6.136;2022-12-07T02:03:00;4.80;99.90
12568;DHT22;6349;50.904;6.136;2022-12-07T02:05:04;4.80;99.90
12568;DHT22;6349;50.904;6.136;2022-12-07T02:07:05;4.80;99.90
12568;DHT22;6349;50.904;6.136;2022-12-07T02:09:06;4.80;99.90
12568;DHT22;6349;50.904;6.136;2022-12-07T02:11:08;4.80;99.90
12568;DHT22;6349;50.904;6.136;2022-12-07T02:13:19;4.80;99.90
12568;DHT22;6349;50.904;6.136;2022-12-07T02:15:22;4.80;99.90
12568;DHT22;6349;50.904;6.136;2022-12-07T02:17:32;4.80;99.90
12568;DHT22;6349;50.904;6.136;2022-12-07T02:25:21;4.80;99.90
12568;DHT22;6349;50.904;6.136;2022-12-07T02:27:38;4.80;99.90
12568;DHT22;6349;50.904;6.136;2022-12-07T02:32:15;4.80;99.90
12568;DHT22;6349;50.904;6.136;2022-12-07T02:34:39;4.80;99.90
12568;DHT22;6349;50.904;6.136;2022-12-07T02:36:49;4.80;99.90
12568;DHT22;6349;50.904;6.136;2022-12-07T02:39:13;4.80;99.90
12568;DHT22;6349;50.904;6.136;2022-12-07T02:41:28;4.80;99.90
12568;DHT22;6349;50.904;6.136;2022-12-07T02:43:38;4.70;99.90
12568;DHT22;6349;50.904;6.136;2022-12-07T02:45:41;4.80;99.90
12568;DHT22;6349;50.904;6.136;2022-12-07T02:47:43;4.70;99.90
12568;DHT22;6349;50.904;6.136;2022-12-07T02:49:45;4.80;99.90
12568;DHT22;6349;50.904;6.136;2022-12-07T02:51:46;4.70;99.90
12568;DHT22;6349;50.904;6.136;2022-12-07T02:53:47;4.80;99.90
12568;DHT22;6349;50.904;6.136;2022-12-07T02:55:48;4.70;99.90
12568;DHT22;6349;50.904;6.136;2022-12-07T03:00:17;4.70;99.90
12568;DHT22;6349;50.904;6.136;2022-12-07T03:10:33;4.70;99.90
12568;DHT22;6349;50.904;6.136;2022-12-07T03:12:20;4.80;99.90
12568;DHT22;6349;50.904;6.136;2022-12-07T03:14:26;4.70;99.90
12568;DHT22;6349;50.904;6.136;2022-12-07T03:16:44;4.80;99.90
12568;DHT22;6349;50.904;6.136;2022-12-07T03:18:56;4.80;99.90
12568;DHT22;6349;50.904;6.136;2022-12-07T03:21:02;4.70;99.90
12568;DHT22;6349;50.904;6.136;2022-12-07T03:23:07;4.80;99.90
12568;DHT22;6349;50.904;6.136;2022-12-07T03:25:11;4.80;99.90
12568;DHT22;6349;50.904;6.136;2022-12-07T03:27:20;4.80;99.90
12568;DHT22;6349;50.904;6.136;2022-12-07T03:29:27;4.80;99.90
12568;DHT22;6349;50.904;6.136;2022-12-07T03:31:31;4.70;99.90
12568;DHT22;6349;50.904;6.136;2022-12-07T03:33:42;4.80;99.90
12568;DHT22;6349;50.904;6.136;2022-12-07T03:38:18;4.80;99.90
12568;DHT22;6349;50.904;6.136;2022-12-07T03:40:29;4.80;99.90
12568;DHT22;6349;50.904;6.136;2022-12-07T03:42:31;4.80;99.90
12568;DHT22;6349;50.904;6.136;2022-12-07T03:44:34;4.80;99.90
12568;DHT22;6349;50.904;6.136;2022-12-07T03:49:33;4.80;99.90
12568;DHT22;6349;50.904;6.136;2022-12-07T03:51:48;4.80;99.90
12568;DHT22;6349;50.904;6.136;2022-12-07T03:53:59;4.80;99.90
12568;DHT22;6349;50.904;6.136;2022-12-07T03:56:01;4.70;99.90
12568;DHT22;6349;50.904;6.136;2022-12-07T03:58:06;4.70;99.90
12568;DHT22;6349;50.904;6.136;2022-12-07T04:00:09;4.70;99.90
12568;DHT22;6349;50.904;6.136;2022-12-07T04:02:13;4.70;99.90
12568;DHT22;6349;50.904;6.136;2022-12-07T04:04:14;4.70;99.90
12568;DHT22;6349;50.904;6.136;2022-12-07T04:06:14;4.80;99.90
12568;DHT22;6349;50.904;6.136;2022-12-07T04:08:15;4.70;99.90
12568;DHT22;6349;50.904;6.136;2022-12-07T04:10:16;4.70;99.90
12568;DHT22;6349;50.904;6.136;2022-12-07T04:12:17;4.60;99.90
12568;DHT22;6349;50.904;6.136;2022-12-07T04:14:18;4.70;99.90
12568;DHT22;6349;50.904;6.136;2022-12-07T04:16:18;4.70;99.90
12568;DHT22;6349;50.904;6.136;2022-12-07T04:18:19;4.70;99.90
12568;DHT22;6349;50.904;6.136;2022-12-07T04:20:20;4.70;99.90
12568;DHT22;6349;50.904;6.136;2022-12-07T04:22:20;4.70;99.90
12568;DHT22;6349;50.904;6.136;2022-12-07T04:24:21;4.70;99.90
12568;DHT22;6349;50.904;6.136;2022-12-07T04:26:22;4.70;99.90
12568;DHT22;6349;50.904;6.136;2022-12-07T04:28:23;4.80;99.90
12568;DHT22;6349;50.904;6.136;2022-12-07T04:30:23;4.70;99.90
12568;DHT22;6349;50.904;6.136;2022-12-07T04:32:24;4.70;99.90
12568;DHT22;6349;50.904;6.136;2022-12-07T04:34:25;4.70;99.90
12568;DHT22;6349;50.904;6.136;2022-12-07T04:36:26;4.70;99.90
12568;DHT22;6349;50.904;6.136;2022-12-07T04:38:26;4.70;99.90
12568;DHT22;6349;50.904;6.136;2022-12-07T04:40:27;4.70;99.90
12568;DHT22;6349;50.904;6.136;2022-12-07T04:42:28;4.70;99.90
12568;DHT22;6349;50.904;6.136;2022-12-07T04:44:29;4.70;99.90
12568;DHT22;6349;50.904;6.136;2022-12-07T04:46:31;4.70;99.90
12568;DHT22;6349;50.904;6.136;2022-12-07T04:48:32;4.70;99.90
12568;DHT22;6349;50.904;6.136;2022-12-07T04:50:32;4.70;99.90
12568;DHT22;6349;50.904;6.136;2022-12-07T04:52:33;4.70;99.90
12568;DHT22;6349;50.904;6.136;2022-12-07T04:54:34;4.70;99.90
12568;DHT22;6349;50.904;6.136;2022-12-07T04:56:35;4.70;99.90
12568;DHT22;6349;50.904;6.136;2022-12-07T04:58:35;4.70;99.90
12568;DHT22;6349;50.904;6.136;2022-12-07T05:00:36;4.70;99.90
12568;DHT22;6349;50.904;6.136;2022-12-07T05:02:37;4.70;99.90
12568;DHT22;6349;50.904;6.136;2022-12-07T05:04:37;4.70;99.90
12568;DHT22;6349;50.904;6.136;2022-12-07T05:06:38;4.70;99.90
12568;DHT22;6349;50.904;6.136;2022-12-07T05:08:39;4.70;99.90
12568;DHT22;6349;50.904;6.136;2022-12-07T05:10:39;4.60;99.90
12568;DHT22;6349;50.904;6.136;2022-12-07T05:12:40;4.70;99.90
12568;DHT22;6349;50.904;6.136;2022-12-07T05:14:41;4.70;99.90
12568;DHT22;6349;50.904;6.136;2022-12-07T05:16:43;4.70;99.90
12568;DHT22;6349;50.904;6.136;2022-12-07T05:18:44;4.70;99.90
12568;DHT22;6349;50.904;6.136;2022-12-07T05:20:46;4.70;99.90
12568;DHT22;6349;50.904;6.136;2022-12-07T05:22:46;4.70;99.90
12568;DHT22;6349;50.904;6.136;2022-12-07T05:24:47;4.70;99.90
12568;DHT22;6349;50.904;6.136;2022-12-07T05:26:48;4.70;99.90
12568;DHT22;6349;50.904;6.136;2022-12-07T05:28:51;4.60;99.90
12568;DHT22;6349;50.904;6.136;2022-12-07T05:30:52;4.70;99.90
12568;DHT22;6349;50.904;6.136;2022-12-07T05:32:53;4.70;99.90
12568;DHT22;6349;50.904;6.136;2022-12-07T05:34:54;4.70;99.90
12568;DHT22;6349;50.904;6.136;2022-12-07T05:36:55;4.70;99.90
12568;DHT22;6349;50.904;6.136;2022-12-07T05:38:55;4.70;99.90
12568;DHT22;6349;50.904;6.136;2022-12-07T05:41:00;4.70;99.90
12568;DHT22;6349;50.904;6.136;2022-12-07T05:43:01;4.70;99.90
12568;DHT22;6349;50.904;6.136;2022-12-07T05:45:02;4.70;99.90
12568;DHT22;6349;50.904;6.136;2022-12-07T05:47:03;4.70;99.90
12568;DHT22;6349;50.904;6.136;2022-12-07T05:49:04;4.70;99.90
12568;DHT22;6349;50.904;6.136;2022-12-07T05:51:05;4.70;99.90
12568;DHT22;6349;50.904;6.136;2022-12-07T05:53:05;4.60;99.90
12568;DHT22;6349;50.904;6.136;2022-12-07T05:55:06;4.60;99.90
12568;DHT22;6349;50.904;6.136;2022-12-07T05:57:07;4.60;99.90
12568;DHT22;6349;50.904;6.136;2022-12-07T05:59:08;4.60;99.90
12568;DHT22;6349;50.904;6.136;2022-12-07T06:01:24;4.60;99.90
12568;DHT22;6349;50.904;6.136;2022-12-07T06:03:25;4.70;99.90
12568;DHT22;6349;50.904;6.136;2022-12-07T06:05:25;4.70;99.90
12568;DHT22;6349;50.904;6.136;2022-12-07T06:07:26;4.70;99.90
12568;DHT22;6349;50.904;6.136;2022-12-07T06:09:28;4.60;99.90
12568;DHT22;6349;50.904;6.136;2022-12-07T06:11:29;4.70;99.90
12568;DHT22;6349;50.904;6.136;2022-12-07T06:13:49;4.70;99.90
12568;DHT22;6349;50.904;6.136;2022-12-07T06:15:50;4.70;99.90
12568;DHT22;6349;50.904;6.136;2022-12-07T06:17:50;4.70;99.90
12568;DHT22;6349;50.904;6.136;2022-12-07T06:19:51;4.70;99.90
12568;DHT22;6349;50.904;6.136;2022-12-07T06:21:52;4.70;99.90
12568;DHT22;6349;50.904;6.136;2022-12-07T06:23:53;4.70;99.90
12568;DHT22;6349;50.904;6.136;2022-12-07T06:25:54;4.70;99.90
12568;DHT22;6349;50.904;6.136;2022-12-07T06:27:54;4.70;99.90
12568;DHT22;6349;50.904;6.136;2022-12-07T06:29:55;4.70;99.90
12568;DHT22;6349;50.904;6.136;2022-12-07T06:31:56;4.60;99.90
12568;DHT22;6349;50.904;6.136;2022-12-07T06:33:58;4.70;99.90
12568;DHT22;6349;50.904;6.136;2022-12-07T06:35:59;4.70;99.90
12568;DHT22;6349;50.904;6.136;2022-12-07T06:38:00;4.70;99.90
12568;DHT22;6349;50.904;6.136;2022-12-07T06:40:00;4.70;99.90
12568;DHT22;6349;50.904;6.136;2022-12-07T06:42:02;4.70;99.90
12568;DHT22;6349;50.904;6.136;2022-12-07T06:44:03;4.70;99.90
12568;DHT22;6349;50.904;6.136;2022-12-07T06:46:04;4.70;99.90
12568;DHT22;6349;50.904;6.136;2022-12-07T06:48:05;4.70;99.90
12568;DHT22;6349;50.904;6.136;2022-12-07T06:50:06;4.70;99.90
12568;DHT22;6349;50.904;6.136;2022-12-07T06:52:08;4.70;99.90
12568;DHT22;6349;50.904;6.136;2022-12-07T06:54:49;4.70;99.90
12568;DHT22;6349;50.904;6.136;2022-12-07T06:56:49;4.70;99.90
12568;DHT22;6349;50.904;6.136;2022-12-07T06:58:50;4.70;99.90
12568;DHT22;6349;50.904;6.136;2022-12-07T07:00:50;4.70;99.90
12568;DHT22;6349;50.904;6.136;2022-12-07T07:02:51;4.70;99.90
12568;DHT22;6349;50.904;6.136;2022-12-07T07:04:52;4.70;99.90
12568;DHT22;6349;50.904;6.136;2022-12-07T07:06:52;4.70;99.90
12568;DHT22;6349;50.904;6.136;2022-12-07T07:08:53;4.70;99.90
12568;DHT22;6349;50.904;6.136;2022-12-07T07:10:54;4.70;99.90
12568;DHT22;6349;50.904;6.136;2022-12-07T07:12:54;4.70;99.90
12568;DHT22;6349;50.904;6.136;2022-12-07T07:14:55;4.70;99.90
12568;DHT22;6349;50.904;6.136;2022-12-07T07:16:56;4.70;99.90
12568;DHT22;6349;50.904;6.136;2022-12-07T07:18:57;4.70;99.90
12568;DHT22;6349;50.904;6.136;2022-12-07T07:20:58;4.70;99.90
12568;DHT22;6349;50.904;6.136;2022-12-07T07:22:59;4.70;99.90
12568;DHT22;6349;50.904;6.136;2022-12-07T07:24:59;4.70;99.90
12568;DHT22;6349;50.904;6.136;2022-12-07T07:27:00;4.70;99.90
12568;DHT22;6349;50.904;6.136;2022-12-07T07:29:01;4.70;99.90
12568;DHT22;6349;50.904;6.136;2022-12-07T07:31:02;4.70;99.90
12568;DHT22;6349;50.904;6.136;2022-12-07T07:33:04;4.60;99.90
12568;DHT22;6349;50.904;6.136;2022-12-07T07:35:05;4.60;99.90
12568;DHT22;6349;50.904;6.136;2022-12-07T07:37:06;4.70;99.90
12568;DHT22;6349;50.904;6.136;2022-12-07T07:39:07;4.60;99.90
12568;DHT22;6349;50.904;6.136;2022-12-07T07:41:07;4.70;99.90
12568;DHT22;6349;50.904;6.136;2022-12-07T07:43:08;4.70;99.90
12568;DHT22;6349;50.904;6.136;2022-12-07T07:45:09;4.70;99.90
12568;DHT22;6349;50.904;6.136;2022-12-07T07:47:09;4.70;99.90
12568;DHT22;6349;50.904;6.136;2022-12-07T07:49:10;4.70;99.90
12568;DHT22;6349;50.904;6.136;2022-12-07T07:51:11;4.70;99.90
12568;DHT22;6349;50.904;6.136;2022-12-07T07:53:12;4.70;99.90
12568;DHT22;6349;50.904;6.136;2022-12-07T07:55:12;4.70;99.90
12568;DHT22;6349;50.904;6.136;2022-12-07T07:57:13;4.70;99.90
12568;DHT22;6349;50.904;6.136;2022-12-07T07:59:14;4.70;99.90
12568;DHT22;6349;50.904;6.136;2022-12-07T08:01:15;4.60;99.90
12568;DHT22;6349;50.904;6.136;2022-12-07T08:03:17;4.70;99.90
12568;DHT22;6349;50.904;6.136;2022-12-07T08:05:18;4.70;99.90
12568;DHT22;6349;50.904;6.136;2022-12-07T08:07:18;4.80;99.90
12568;DHT22;6349;50.904;6.136;2022-12-07T08:09:19;4.70;99.90
12568;DHT22;6349;50.904;6.136;2022-12-07T08:11:20;4.70;99.90
12568;DHT22;6349;50.904;6.136;2022-12-07T08:13:20;4.70;99.90
12568;DHT22;6349;50.904;6.136;2022-12-07T08:15:21;4.70;99.90
12568;DHT22;6349;50.904;6.136;2022-12-07T08:17:22;4.70;99.90
12568;DHT22;6349;50.904;6.136;2022-12-07T08:19:23;4.70;99.90
12568;DHT22;6349;50.904;6.136;2022-12-07T08:21:23;4.70;99.90
12568;DHT22;6349;50.904;6.136;2022-12-07T08:23:24;4.70;99.90
12568;DHT22;6349;50.904;6.136;2022-12-07T08:25:25;4.70;99.90
12568;DHT22;6349;50.904;6.136;2022-12-07T08:27:25;4.60;99.90
12568;DHT22;6349;50.904;6.136;2022-12-07T08:29:27;4.60;99.90
12568;DHT22;6349;50.904;6.136;2022-12-07T08:31:28;4.60;99.90
12568;DHT22;6349;50.904;6.136;2022-12-07T08:33:29;4.60;99.90
12568;DHT22;6349;50.904;6.136;2022-12-07T08:35:32;4.60;99.90
12568;DHT22;6349;50.904;6.136;2022-12-07T08:37:32;4.40;99.90
12568;DHT22;6349;50.904;6.136;2022-12-07T08:39:33;4.60;99.90
12568;DHT22;6349;50.904;6.136;2022-12-07T08:41:34;4.50;99.90
12568;DHT22;6349;50.904;6.136;2022-12-07T08:43:35;4.50;99.90
12568;DHT22;6349;50.904;6.136;2022-12-07T08:45:36;4.50;99.90
12568;DHT22;6349;50.904;6.136;2022-12-07T08:47:43;4.50;99.90
12568;DHT22;6349;50.904;6.136;2022-12-07T08:49:47;4.50;99.90
12568;DHT22;6349;50.904;6.136;2022-12-07T08:51:50;4.50;99.90
12568;DHT22;6349;50.904;6.136;2022-12-07T08:53:52;4.50;99.90
12568;DHT22;6349;50.904;6.136;2022-12-07T08:55:54;4.60;99.90
12568;DHT22;6349;50.904;6.136;2022-12-07T08:57:57;4.60;99.90
12568;DHT22;6349;50.904;6.136;2022-12-07T08:59:58;4.60;99.90
12568;DHT22;6349;50.904;6.136;2022-12-07T09:01:59;4.60;99.90
12568;DHT22;6349;50.904;6.136;2022-12-07T09:03:59;4.60;99.90
12568;DHT22;6349;50.904;6.136;2022-12-07T09:06:00;4.70;99.90
12568;DHT22;6349;50.904;6.136;2022-12-07T09:08:01;4.70;99.90
12568;DHT22;6349;50.904;6.136;2022-12-07T09:10:03;4.70;99.90
12568;DHT22;6349;50.904;6.136;2022-12-07T09:12:04;4.70;99.90
12568;DHT22;6349;50.904;6.136;2022-12-07T09:14:04;4.60;99.90
12568;DHT22;6349;50.904;6.136;2022-12-07T09:16:05;4.70;99.90
12568;DHT22;6349;50.904;6.136;2022-12-07T09:18:06;4.70;99.90
12568;DHT22;6349;50.904;6.136;2022-12-07T09:20:07;4.70;99.90
12568;DHT22;6349;50.904;6.136;2022-12-07T09:22:08;4.70;99.90
12568;DHT22;6349;50.904;6.136;2022-12-07T09:24:09;4.70;99.90
12568;DHT22;6349;50.904;6.136;2022-12-07T09:26:10;4.70;99.90
12568;DHT22;6349;50.904;6.136;2022-12-07T09:28:11;4.70;99.90
12568;DHT22;6349;50.904;6.136;2022-12-07T09:30:11;4.80;99.90
12568;DHT22;6349;50.904;6.136;2022-12-07T09:32:12;4.80;99.90
12568;DHT22;6349;50.904;6.136;2022-12-07T09:34:13;4.80;99.90
12568;DHT22;6349;50.904;6.136;2022-12-07T09:36:13;4.80;99.90
12568;DHT22;6349;50.904;6.136;2022-12-07T09:38:15;4.80;99.90
12568;DHT22;6349;50.904;6.136;2022-12-07T09:40:17;4.90;99.90
12568;DHT22;6349;50.904;6.136;2022-12-07T09:42:32;4.90;99.90
12568;DHT22;6349;50.904;6.136;2022-12-07T09:44:35;4.90;99.90
12568;DHT22;6349;50.904;6.136;2022-12-07T09:46:39;4.90;99.90
12568;DHT22;6349;50.904;6.136;2022-12-07T09:48:42;4.90;99.90
12568;DHT22;6349;50.904;6.136;2022-12-07T09:50:44;4.90;99.90
12568;DHT22;6349;50.904;6.136;2022-12-07T09:52:45;5.00;99.90
12568;DHT22;6349;50.904;6.136;2022-12-07T09:54:50;4.90;99.90
12568;DHT22;6349;50.904;6.136;2022-12-07T09:56:51;5.00;99.90
12568;DHT22;6349;50.904;6.136;2022-12-07T09:58:58;5.00;99.90
12568;DHT22;6349;50.904;6.136;2022-12-07T10:03:20;5.00;99.90
12568;DHT22;6349;50.904;6.136;2022-12-07T10:05:26;5.10;99.90
12568;DHT22;6349;50.904;6.136;2022-12-07T10:07:27;5.10;99.90
12568;DHT22;6349;50.904;6.136;2022-12-07T10:09:29;5.10;99.90
12568;DHT22;6349;50.904;6.136;2022-12-07T10:14:12;5.10;99.90
12568;DHT22;6349;50.904;6.136;2022-12-07T10:16:41;5.20;99.90
12568;DHT22;6349;50.904;6.136;2022-12-07T10:18:42;5.10;99.90
12568;DHT22;6349;50.904;6.136;2022-12-07T10:20:43;5.10;99.90
12568;DHT22;6349;50.904;6.136;2022-12-07T10:23:03;5.10;99.90
12568;DHT22;6349;50.904;6.136;2022-12-07T10:25:15;5.00;99.90
12568;DHT22;6349;50.904;6.136;2022-12-07T10:27:22;5.10;99.90
12568;DHT22;6349;50.904;6.136;2022-12-07T10:29:31;5.10;99.90
12568;DHT22;6349;50.904;6.136;2022-12-07T10:31:38;5.10;99.90
12568;DHT22;6349;50.904;6.136;2022-12-07T10:33:57;5.20;99.90
12568;DHT22;6349;50.904;6.136;2022-12-07T10:36:00;5.20;99.90
12568;DHT22;6349;50.904;6.136;2022-12-07T10:38:01;5.20;99.90
12568;DHT22;6349;50.904;6.136;2022-12-07T10:40:07;5.20;99.90
12568;DHT22;6349;50.904;6.136;2022-12-07T10:42:24;5.20;99.90
12568;DHT22;6349;50.904;6.136;2022-12-07T10:44:27;5.30;99.90
12568;DHT22;6349;50.904;6.136;2022-12-07T10:47:12;5.30;99.90
12568;DHT22;6349;50.904;6.136;2022-12-07T10:49:37;5.30;99.90
12568;DHT22;6349;50.904;6.136;2022-12-07T10:52:01;5.20;99.90
12568;DHT22;6349;50.904;6.136;2022-12-07T10:54:34;5.20;99.90
12568;DHT22;6349;50.904;6.136;2022-12-07T10:57:27;5.20;99.90
12568;DHT22;6349;50.904;6.136;2022-12-07T11:06:30;5.20;99.90
12568;DHT22;6349;50.904;6.136;2022-12-07T11:08:52;5.20;99.90
12568;DHT22;6349;50.904;6.136;2022-12-07T11:14:02;5.40;99.90
12568;DHT22;6349;50.904;6.136;2022-12-07T11:16:57;5.40;99.90
12568;DHT22;6349;50.904;6.136;2022-12-07T11:18:58;5.50;99.90
12568;DHT22;6349;50.904;6.136;2022-12-07T11:21:25;5.50;99.90
12568;DHT22;6349;50.904;6.136;2022-12-07T11:23:49;5.50;99.90
12568;DHT22;6349;50.904;6.136;2022-12-07T11:30:53;5.60;99.90
12568;DHT22;6349;50.904;6.136;2022-12-07T11:33:19;5.60;99.90
12568;DHT22;6349;50.904;6.136;2022-12-07T11:38:17;5.60;99.90
12568;DHT22;6349;50.904;6.136;2022-12-07T11:40:35;5.60;99.90
12568;DHT22;6349;50.904;6.136;2022-12-07T11:42:41;5.70;99.90
12568;DHT22;6349;50.904;6.136;2022-12-07T11:47:08;5.80;99.90
12568;DHT22;6349;50.904;6.136;2022-12-07T11:49:37;5.80;99.90
12568;DHT22;6349;50.904;6.136;2022-12-07T11:51:38;5.80;99.90
12568;DHT22;6349;50.904;6.136;2022-12-07T11:53:54;5.80;99.90
12568;DHT22;6349;50.904;6.136;2022-12-07T12:08:39;5.90;99.90
12568;DHT22;6349;50.904;6.136;2022-12-07T12:13:20;6.10;99.90
12568;DHT22;6349;50.904;6.136;2022-12-07T12:15:47;6.20;99.90
12568;DHT22;6349;50.904;6.136;2022-12-07T12:20:41;6.30;99.90
12568;DHT22;6349;50.904;6.136;2022-12-07T12:22:48;6.30;99.90
12568;DHT22;6349;50.904;6.136;2022-12-07T12:24:53;6.30;99.90
12568;DHT22;6349;50.904;6.136;2022-12-07T12:27:03;6.30;99.90
12568;DHT22;6349;50.904;6.136;2022-12-07T12:29:18;6.30;99.90
12568;DHT22;6349;50.904;6.136;2022-12-07T12:33:32;6.20;99.90
12568;DHT22;6349;50.904;6.136;2022-12-07T12:35:35;6.20;99.90
12568;DHT22;6349;50.904;6.136;2022-12-07T12:37:41;6.30;99.90
12568;DHT22;6349;50.904;6.136;2022-12-07T12:42:20;6.30;99.90
12568;DHT22;6349;50.904;6.136;2022-12-07T12:48:44;6.30;99.90
12568;DHT22;6349;50.904;6.136;2022-12-07T12:50:45;6.40;99.90
12568;DHT22;6349;50.904;6.136;2022-12-07T12:52:52;6.40;99.90
12568;DHT22;6349;50.904;6.136;2022-12-07T12:55:13;6.30;99.90
12568;DHT22;6349;50.904;6.136;2022-12-07T12:57:30;6.30;99.90
12568;DHT22;6349;50.904;6.136;2022-12-07T12:59:41;6.20;99.90
12568;DHT22;6349;50.904;6.136;2022-12-07T13:01:43;6.20;99.90
12568;DHT22;6349;50.904;6.136;2022-12-07T13:03:56;6.20;99.90
12568;DHT22;6349;50.904;6.136;2022-12-07T13:08:40;6.20;99.90
12568;DHT22;6349;50.904;6.136;2022-12-07T13:10:43;6.20;99.90
12568;DHT22;6349;50.904;6.136;2022-12-07T13:13:01;6.20;99.90
12568;DHT22;6349;50.904;6.136;2022-12-07T13:15:02;6.20;99.90
12568;DHT22;6349;50.904;6.136;2022-12-07T13:17:04;6.20;99.90
12568;DHT22;6349;50.904;6.136;2022-12-07T13:20:01;6.10;99.90
12568;DHT22;6349;50.904;6.136;2022-12-07T13:21:45;6.10;99.90
12568;DHT22;6349;50.904;6.136;2022-12-07T13:25:56;6.10;99.90
12568;DHT22;6349;50.904;6.136;2022-12-07T13:28:18;6.10;99.90
12568;DHT22;6349;50.904;6.136;2022-12-07T13:30:21;6.00;99.90
12568;DHT22;6349;50.904;6.136;2022-12-07T13:32:27;6.00;99.90
12568;DHT22;6349;50.904;6.136;2022-12-07T13:34:34;6.10;99.90
12568;DHT22;6349;50.904;6.136;2022-12-07T13:36:39;6.00;99.90
12568;DHT22;6349;50.904;6.136;2022-12-07T13:38:52;6.00;99.90
12568;DHT22;6349;50.904;6.136;2022-12-07T13:41:14;6.00;99.90
12568;DHT22;6349;50.904;6.136;2022-12-07T13:43:16;5.90;99.90
12568;DHT22;6349;50.904;6.136;2022-12-07T13:45:24;6.00;99.90
12568;DHT22;6349;50.904;6.136;2022-12-07T13:47:52;5.90;99.90
12568;DHT22;6349;50.904;6.136;2022-12-07T13:49:56;5.90;99.90
12568;DHT22;6349;50.904;6.136;2022-12-07T13:52:18;5.90;99.90
12568;DHT22;6349;50.904;6.136;2022-12-07T13:54:21;5.90;99.90
12568;DHT22;6349;50.904;6.136;2022-12-07T13:56:34;5.90;99.90
12568;DHT22;6349;50.904;6.136;2022-12-07T13:58:35;5.90;99.90
12568;DHT22;6349;50.904;6.136;2022-12-07T14:00:36;5.90;99.90
12568;DHT22;6349;50.904;6.136;2022-12-07T14:03:02;5.90;99.90
12568;DHT22;6349;50.904;6.136;2022-12-07T14:05:16;5.90;99.90
12568;DHT22;6349;50.904;6.136;2022-12-07T14:07:26;5.90;99.90
12568;DHT22;6349;50.904;6.136;2022-12-07T14:09:29;5.90;99.90
12568;DHT22;6349;50.904;6.136;2022-12-07T14:11:30;5.90;99.90
12568;DHT22;6349;50.904;6.136;2022-12-07T14:13:33;5.90;99.90
12568;DHT22;6349;50.904;6.136;2022-12-07T14:15:35;5.90;99.90
12568;DHT22;6349;50.904;6.136;2022-12-07T14:17:36;5.90;99.90
12568;DHT22;6349;50.904;6.136;2022-12-07T14:20:01;5.90;99.90
12568;DHT22;6349;50.904;6.136;2022-12-07T14:22:06;5.80;99.90
12568;DHT22;6349;50.904;6.136;2022-12-07T14:24:16;5.80;99.90
12568;DHT22;6349;50.904;6.136;2022-12-07T14:26:20;5.80;99.90
12568;DHT22;6349;50.904;6.136;2022-12-07T14:28:33;5.80;99.90
12568;DHT22;6349;50.904;6.136;2022-12-07T14:30:34;5.80;99.90
12568;DHT22;6349;50.904;6.136;2022-12-07T14:32:36;5.80;99.90
12568;DHT22;6349;50.904;6.136;2022-12-07T14:34:37;5.80;99.90
12568;DHT22;6349;50.904;6.136;2022-12-07T14:36:38;5.80;99.90
12568;DHT22;6349;50.904;6.136;2022-12-07T14:38:39;5.80;99.90
12568;DHT22;6349;50.904;6.136;2022-12-07T14:40:39;5.80;99.90
12568;DHT22;6349;50.904;6.136;2022-12-07T14:42:42;5.90;99.90
12568;DHT22;6349;50.904;6.136;2022-12-07T14:45:05;5.70;99.90
12568;DHT22;6349;50.904;6.136;2022-12-07T14:47:23;5.80;99.90
12568;DHT22;6349;50.904;6.136;2022-12-07T14:59:02;5.80;99.90
12568;DHT22;6349;50.904;6.136;2022-12-07T15:01:03;5.80;99.90
12568;DHT22;6349;50.904;6.136;2022-12-07T15:03:03;5.80;99.90
12568;DHT22;6349;50.904;6.136;2022-12-07T15:05:04;5.80;99.90